createdAt,value
2024-02-08T08:26:27.101Z,99.90
2024-02-08T08:50:51.430Z,99.90
2024-02-08T08:55:51.010Z,99.90
2024-02-08T09:00:48.367Z,99.90
2024-02-08T09:05:44.907Z,99.90
2024-02-08T09:21:41.488Z,99.90
2024-02-08T09:26:50.252Z,99.90
2024-02-08T09:31:47.978Z,99.90
2024-02-08T09:36:45.255Z,99.90
2024-02-08T09:41:40.083Z,99.90
2024-02-08T09:54:16.154Z,98.70
2024-02-08T09:59:18.973Z,98.70
2024-02-08T10:04:27.292Z,98.10
2024-02-08T10:09:42.234Z,97.50
2024-02-08T10:14:36.761Z,96.80
2024-02-08T10:19:49.610Z,96.00
2024-02-08T10:25:01.433Z,94.90
2024-02-08T10:30:02.387Z,94.50
2024-02-08T10:35:15.292Z,93.70
2024-02-08T10:40:31.176Z,92.50
2024-02-08T10:45:25.988Z,92.00
2024-02-08T10:50:22.648Z,90.40
2024-02-08T10:55:20.630Z,87.90
2024-02-08T11:00:29.846Z,86.60
2024-02-08T11:05:43.844Z,85.60
2024-02-08T11:10:39.511Z,84.50
2024-02-08T11:15:40.678Z,82.80
2024-02-08T11:20:43.985Z,80.10
2024-02-08T11:25:46.411Z,79.00
2024-02-08T11:30:41.124Z,78.40
2024-02-08T11:35:37.380Z,77.50
2024-02-08T11:40:37.548Z,75.10
2024-02-08T11:45:33.379Z,74.80
2024-02-08T11:50:37.864Z,74.10
2024-02-08T11:55:31.773Z,73.10
2024-02-08T12:00:26.329Z,73.10
2024-02-08T12:05:22.232Z,71.60
2024-02-08T12:10:16.879Z,70.70
2024-02-08T12:15:14.356Z,70.00
2024-02-08T12:20:12.112Z,69.60
2024-02-08T12:25:09.412Z,68.20
2024-02-08T12:30:04.888Z,67.20
2024-02-08T12:34:58.988Z,67.30
2024-02-08T12:39:53.471Z,67.00
2024-02-08T12:44:51.677Z,66.80
2024-02-08T12:49:49.092Z,66.50
2024-02-08T12:54:43.306Z,65.80
2024-02-08T12:59:38.042Z,65.00
2024-02-08T13:04:33.490Z,62.80
2024-02-08T13:09:28.626Z,62.20
2024-02-08T13:14:22.178Z,62.10
2024-02-08T13:19:27.169Z,61.80
2024-02-08T13:24:22.655Z,61.80
2024-02-08T13:29:16.719Z,61.10
2024-02-08T13:34:11.052Z,60.70
2024-02-08T13:39:05.280Z,59.30
2024-02-08T13:44:01.252Z,57.90
2024-02-08T13:48:55.139Z,57.20
2024-02-08T13:53:51.351Z,58.00
2024-02-08T13:58:45.299Z,56.40
2024-02-08T14:03:41.176Z,55.60
2024-02-08T14:08:35.340Z,55.00
2024-02-08T14:13:36.768Z,53.30
2024-02-08T14:18:38.767Z,52.40
2024-02-08T14:23:39.367Z,51.30
2024-02-08T14:28:33.825Z,50.50
2024-02-08T14:33:27.602Z,51.00
2024-02-08T14:38:21.381Z,51.50
2024-02-08T14:43:27.032Z,52.90
2024-02-08T14:48:24.663Z,53.80
2024-02-08T14:53:19.181Z,56.40
2024-02-08T14:58:32.855Z,59.00
2024-02-08T15:03:30.497Z,62.70
2024-02-08T15:08:40.742Z,66.70
2024-02-08T15:13:47.732Z,66.80
2024-02-08T15:18:49.829Z,68.20
2024-02-08T15:24:06.574Z,71.00
2024-02-08T15:29:05.449Z,72.70
2024-02-08T15:34:09.928Z,73.90
2024-02-08T15:39:24.613Z,74.80
2024-02-08T15:44:20.566Z,73.70
2024-02-08T15:49:16.677Z,72.30
2024-02-08T15:54:23.424Z,72.00
2024-02-08T15:59:17.041Z,72.10
2024-02-08T16:04:31.694Z,72.60
2024-02-08T16:09:34.513Z,73.10
2024-02-08T16:14:31.371Z,73.60
2024-02-08T16:19:31.753Z,74.70
2024-02-08T16:24:32.060Z,74.80
2024-02-08T16:29:35.970Z,75.10
2024-02-08T16:34:36.013Z,75.40
2024-02-08T16:39:34.995Z,75.90
2024-02-08T16:44:44.975Z,76.40
2024-02-08T16:49:45.442Z,77.00
2024-02-08T16:54:56.136Z,77.30
2024-02-08T16:59:54.403Z,77.90
2024-02-08T17:04:51.386Z,77.70
2024-02-08T17:09:48.710Z,77.90
2024-02-08T17:14:48.277Z,78.10
2024-02-08T17:19:58.962Z,78.50
2024-02-08T17:25:20.752Z,78.80
2024-02-08T17:30:26.492Z,79.30
